Time;durP1;ratioP1;P1;durP2;ratioP2;P2;SDS_P1;SDS_P2;PMS_P1;PMS_P2;Temp;Humidity;BMP_temperature;BMP_pressure;BME280_temperature;BME280_humidity;BME280_pressure;Samples;Min_cycle;Max_cycle;Signal;HPM_P1;HPM_P2
2023/10/04 00:00:21;;;;;;;1999.90;999.90;;;14.80;99.90;;;;;;5114031;28;20069;-67
2023/10/04 00:02:52;;;;;;;1999.90;999.90;;;14.80;99.90;;;;;;5103304;28;20424;-66
2023/10/04 00:05:19;;;;;;;1999.90;999.90;;;14.80;99.90;;;;;;5113933;28;20034;-67
2023/10/04 00:07:50;;;;;;;1999.90;999.90;;;14.80;99.90;;;;;;5111901;28;20074;-67
2023/10/04 00:10:17;;;;;;;1999.90;999.90;;;14.80;99.90;;;;;;5110400;28;20051;-67
2023/10/04 00:12:44;;;;;;;1999.90;999.90;;;14.80;99.90;;;;;;5111732;28;20073;-66
2023/10/04 00:15:13;;;;;;;1999.90;999.90;;;14.80;99.90;;;;;;5119482;27;20043;-69
2023/10/04 00:17:41;;;;;;;1999.90;999.90;;;14.80;99.90;;;;;;5111957;28;20066;-67
2023/10/04 00:20:16;;;;;;;1999.90;999.90;;;14.80;99.90;;;;;;5102701;28;20020;-67
2023/10/04 00:22:46;;;;;;;1999.90;999.90;;;14.80;99.90;;;;;;5110623;28;20484;-67
2023/10/04 00:25:21;;;;;;;1999.90;999.90;;;14.80;99.90;;;;;;5112715;28;20433;-67
2023/10/04 00:27:52;;;;;;;1999.90;999.90;;;14.80;99.90;;;;;;5108341;28;20020;-67
2023/10/04 00:30:18;;;;;;;1999.90;999.90;;;14.70;99.90;;;;;;5113555;28;20023;-66
2023/10/04 00:32:48;;;;;;;1999.90;999.90;;;14.70;99.90;;;;;;5111063;28;20106;-67
2023/10/04 00:35:17;;;;;;;1999.90;999.90;;;14.70;99.90;;;;;;5102395;28;20064;-67
2023/10/04 00:37:51;;;;;;;1999.90;999.90;;;14.60;99.90;;;;;;5095876;28;20020;-68
2023/10/04 00:40:21;;;;;;;1999.90;999.90;;;14.60;99.90;;;;;;5094840;28;20047;-68
2023/10/04 00:42:49;;;;;;;1999.90;999.90;;;14.50;99.90;;;;;;5108718;28;20024;-78
2023/10/04 00:45:19;;;;;;;1999.90;999.90;;;14.50;99.90;;;;;;5110772;28;20058;-67
2023/10/04 00:47:47;;;;;;;1999.90;999.90;;;14.40;99.90;;;;;;5099201;28;20356;-66
2023/10/04 00:50:16;;;;;;;1999.90;999.90;;;14.40;99.90;;;;;;5095535;28;20044;-77
2023/10/04 00:52:52;;;;;;;1999.90;999.90;;;14.40;99.90;;;;;;5101318;28;20107;-67
2023/10/04 00:55:21;;;;;;;1999.90;999.90;;;14.40;99.90;;;;;;5105209;27;20031;-67
2023/10/04 00:57:54;;;;;;;1999.90;999.90;;;14.40;99.90;;;;;;5101252;28;20058;-67
2023/10/04 01:00:20;;;;;;;1999.90;999.90;;;14.30;99.90;;;;;;5113993;28;20051;-67
2023/10/04 01:02:47;;;;;;;1999.90;999.90;;;14.30;99.90;;;;;;5093901;28;20028;-67
2023/10/04 01:05:19;;;;;;;1999.90;999.90;;;14.30;99.90;;;;;;5101947;28;20071;-75
2023/10/04 01:07:48;;;;;;;1999.90;999.90;;;14.20;99.90;;;;;;5108230;28;20073;-67
2023/10/04 01:10:15;;;;;;;1999.90;999.90;;;14.20;99.90;;;;;;5088223;28;20037;-67
2023/10/04 01:12:46;;;;;;;1999.90;999.90;;;14.10;99.90;;;;;;5109743;28;20418;-68
2023/10/04 01:15:28;;;;;;;1999.90;999.90;;;14.10;99.90;;;;;;5095346;28;20403;-67
2023/10/04 01:17:55;;;;;;;1999.90;999.90;;;14.00;99.90;;;;;;5107877;28;20026;-67
2023/10/04 01:20:23;;;;;;;1999.90;999.90;;;14.00;99.90;;;;;;5096387;28;20016;-66
2023/10/04 01:22:50;;;;;;;1999.90;999.90;;;14.00;99.90;;;;;;5107932;28;20032;-73
2023/10/04 01:25:16;;;;;;;1999.90;999.90;;;13.90;99.90;;;;;;5117790;28;20030;-67
2023/10/04 01:27:44;;;;;;;1999.90;999.90;;;13.90;99.90;;;;;;5118147;28;20031;-68
2023/10/04 01:30:10;;;;;;;1999.90;999.90;;;13.90;99.90;;;;;;5115998;28;20043;-67
2023/10/04 01:32:37;;;;;;;1999.90;999.90;;;13.90;99.90;;;;;;5115085;28;20482;-67
2023/10/04 01:35:05;;;;;;;1999.90;999.90;;;13.80;99.90;;;;;;5100458;28;20349;-74
2023/10/04 01:37:33;;;;;;;1999.90;999.90;;;13.90;99.90;;;;;;5118965;28;20023;-67
2023/10/04 01:39:59;;;;;;;1999.90;999.90;;;13.80;99.90;;;;;;5124674;27;20313;-67
2023/10/04 01:42:25;;;;;;;1999.90;999.90;;;13.80;99.90;;;;;;5115295;28;20075;-67
2023/10/04 01:44:54;;;;;;;1999.90;999.90;;;13.70;99.90;;;;;;5108715;28;20314;-67
2023/10/04 01:47:20;;;;;;;1999.90;999.90;;;13.70;99.90;;;;;;5116785;28;20126;-67
2023/10/04 01:49:47;;;;;;;1999.90;999.90;;;13.60;99.90;;;;;;5110596;27;20047;-67
2023/10/04 01:52:13;;;;;;;1999.90;999.90;;;13.60;99.90;;;;;;5119760;27;20019;-67
2023/10/04 01:54:39;;;;;;;1999.90;999.90;;;13.50;99.90;;;;;;5105281;28;20318;-67
2023/10/04 01:57:06;;;;;;;1999.90;999.90;;;13.40;99.90;;;;;;5107104;28;20055;-67
2023/10/04 01:59:32;;;;;;;1999.90;999.90;;;13.40;99.90;;;;;;5111828;28;20012;-67
2023/10/04 02:01:59;;;;;;;1999.90;999.90;;;13.40;99.90;;;;;;5109663;27;20028;-67
2023/10/04 02:04:25;;;;;;;1999.90;999.90;;;13.40;99.90;;;;;;5115895;27;20031;-67
2023/10/04 02:06:50;;;;;;;1999.90;999.90;;;13.40;99.90;;;;;;5117064;28;20027;-67
2023/10/04 02:09:18;;;;;;;1999.90;999.90;;;13.40;99.90;;;;;;5106719;28;20098;-75
2023/10/04 02:11:44;;;;;;;1999.90;999.90;;;13.40;99.90;;;;;;5106584;28;20022;-67
2023/10/04 02:14:11;;;;;;;1999.90;999.90;;;13.40;99.90;;;;;;5114993;28;20028;-67
2023/10/04 02:16:37;;;;;;;;;;;13.40;99.90;;;;;;5116224;28;20023;-67
2023/10/04 02:19:03;;;;;;;1999.90;999.90;;;13.30;99.90;;;;;;5116357;28;20306;-67
2023/10/04 02:21:29;;;;;;;1999.90;999.90;;;13.30;99.90;;;;;;5116369;28;20133;-67
2023/10/04 02:23:54;;;;;;;1999.90;999.90;;;13.30;99.90;;;;;;5109574;28;20088;-66
2023/10/04 02:26:23;;;;;;;1999.90;999.90;;;13.30;99.90;;;;;;5113120;28;20319;-68
2023/10/04 02:28:52;;;;;;;1999.90;999.90;;;13.30;99.90;;;;;;5093516;28;20036;-66
2023/10/04 02:31:22;;;;;;;1999.90;999.90;;;13.20;99.90;;;;;;5098657;28;20028;-67
2023/10/04 02:33:50;;;;;;;1999.90;999.90;;;13.20;99.90;;;;;;5117676;27;20015;-75
2023/10/04 02:36:15;;;;;;;1999.90;999.90;;;13.20;99.90;;;;;;5116380;28;20080;-67
2023/10/04 02:38:41;;;;;;;1999.90;999.90;;;13.20;99.90;;;;;;5115026;28;20028;-66
2023/10/04 02:41:10;;;;;;;1999.90;999.90;;;13.10;99.90;;;;;;5105763;28;20322;-66
2023/10/04 02:43:40;;;;;;;1999.90;999.90;;;13.10;99.90;;;;;;5098682;28;20049;-67
2023/10/04 02:46:06;;;;;;;1999.90;999.90;;;13.10;99.90;;;;;;5117378;28;20425;-67
2023/10/04 02:48:32;;;;;;;1999.90;999.90;;;13.00;99.90;;;;;;5112090;28;20031;-66
2023/10/04 02:50:58;;;;;;;1999.90;999.90;;;13.00;99.90;;;;;;5113841;28;20430;-67
2023/10/04 02:53:25;;;;;;;1999.90;999.90;;;13.00;99.90;;;;;;5083428;28;20036;-67
2023/10/04 02:55:54;;;;;;;;;;;13.00;99.90;;;;;;5129260;27;20051;-67
2023/10/04 02:58:21;;;;;;;1999.90;999.90;;;13.00;99.90;;;;;;5115927;28;20014;-67
2023/10/04 03:00:49;;;;;;;1999.90;999.90;;;13.00;99.90;;;;;;5112359;28;20023;-66
2023/10/04 03:03:21;;;;;;;1999.90;999.90;;;13.00;99.90;;;;;;5126633;27;20411;-66
2023/10/04 03:05:48;;;;;;;1999.90;999.90;;;13.00;99.90;;;;;;5116935;28;20028;-75
2023/10/04 03:08:13;;;;;;;1999.90;999.90;;;13.00;99.90;;;;;;5102256;28;20028;-67
2023/10/04 03:10:40;;;;;;;1999.90;999.90;;;13.00;99.90;;;;;;5104660;28;20482;-66
2023/10/04 03:13:11;;;;;;;1999.90;999.90;;;13.00;99.90;;;;;;5109246;28;20322;-67
2023/10/04 03:15:38;;;;;;;1999.90;999.90;;;13.00;99.90;;;;;;5097769;28;20055;-67
2023/10/04 03:18:13;;;;;;;1999.90;999.90;;;13.00;99.90;;;;;;5108011;28;20028;-67
2023/10/04 03:20:45;;;;;;;1999.90;999.90;;;13.10;99.90;;;;;;5111763;28;20028;-71
2023/10/04 03:23:11;;;;;;;1999.90;999.90;;;13.10;99.90;;;;;;5107197;28;20040;-66
2023/10/04 03:25:37;;;;;;;1999.90;999.90;;;13.10;99.90;;;;;;5106351;28;20075;-66
2023/10/04 03:28:03;;;;;;;1999.90;999.90;;;13.10;99.90;;;;;;5108459;28;20398;-67
2023/10/04 03:30:31;;;;;;;1999.90;999.90;;;13.10;99.90;;;;;;5107124;28;20023;-67
2023/10/04 03:32:57;;;;;;;1999.90;999.90;;;13.10;99.90;;;;;;5111920;28;20024;-67
2023/10/04 03:35:26;;;;;;;1999.90;999.90;;;13.00;99.90;;;;;;5107782;28;20076;-66
2023/10/04 03:37:58;;;;;;;1999.90;999.90;;;13.00;99.90;;;;;;5111375;28;20015;-67
2023/10/04 03:40:37;;;;;;;1999.90;999.90;;;13.00;99.90;;;;;;5110393;28;21508;-67
2023/10/04 03:43:07;;;;;;;1999.90;999.90;;;13.00;99.90;;;;;;5111057;28;20027;-66
2023/10/04 03:45:34;;;;;;;1999.90;999.90;;;13.00;99.90;;;;;;5107111;28;20028;-67
2023/10/04 03:48:00;;;;;;;1999.90;999.90;;;13.00;99.90;;;;;;5105234;28;20051;-66
2023/10/04 03:50:27;;;;;;;1999.90;999.90;;;13.10;99.90;;;;;;5110800;28;20043;-67
2023/10/04 03:52:59;;;;;;;1999.90;999.90;;;13.10;99.90;;;;;;5095460;28;20035;-67
2023/10/04 03:55:28;;;;;;;1999.90;999.90;;;13.10;99.90;;;;;;5098146;28;20027;-66
2023/10/04 03:57:54;;;;;;;1999.90;999.90;;;13.10;99.90;;;;;;5097668;28;20123;-66
2023/10/04 04:00:22;;;;;;;1999.90;999.90;;;13.10;99.90;;;;;;5097418;28;20419;-67
2023/10/04 04:02:50;;;;;;;1999.90;999.90;;;13.10;99.90;;;;;;5077063;28;20028;-67
2023/10/04 04:05:15;;;;;;;1999.90;999.90;;;13.00;99.90;;;;;;5095630;28;20035;-67
2023/10/04 04:07:42;;;;;;;1999.90;999.90;;;13.00;99.90;;;;;;5107708;28;20024;-68
2023/10/04 04:10:09;;;;;;;1999.90;999.90;;;13.00;99.90;;;;;;5104358;28;20055;-67
2023/10/04 04:12:36;;;;;;;1999.90;999.90;;;13.00;99.90;;;;;;5113230;28;20434;-67
2023/10/04 04:15:03;;;;;;;1999.90;999.90;;;13.00;99.90;;;;;;5118513;27;20024;-74
2023/10/04 04:17:29;;;;;;;;;;;13.00;99.90;;;;;;5107430;28;20063;-67
2023/10/04 04:19:55;;;;;;;1999.90;999.90;;;12.90;99.90;;;;;;5101906;28;19955;-67
2023/10/04 04:22:24;;;;;;;1999.90;999.90;;;12.80;99.90;;;;;;5103092;28;20070;-67
2023/10/04 04:24:52;;;;;;;1999.90;999.90;;;12.90;99.90;;;;;;5106917;28;20036;-67
2023/10/04 04:27:22;;;;;;;1999.90;999.90;;;12.80;99.90;;;;;;5100908;28;20605;-67
2023/10/04 04:29:54;;;;;;;1999.90;999.90;;;12.80;99.90;;;;;;5101727;28;20031;-66
2023/10/04 04:32:26;;;;;;;1999.90;999.90;;;12.80;99.90;;;;;;5101454;28;20030;-66
2023/10/04 04:34:56;;;;;;;1999.90;999.90;;;12.80;99.90;;;;;;5115476;28;20019;-66
2023/10/04 04:37:23;;;;;;;1999.90;999.90;;;12.80;99.90;;;;;;5113638;28;20023;-66
2023/10/04 04:39:51;;;;;;;1999.90;999.90;;;12.70;99.90;;;;;;5114297;28;20047;-67
2023/10/04 04:42:22;;;;;;;1999.90;999.90;;;12.70;99.90;;;;;;5103594;28;20020;-67
2023/10/04 04:44:48;;;;;;;1999.90;999.90;;;12.70;99.90;;;;;;5106610;28;20038;-67
2023/10/04 04:47:17;;;;;;;1999.90;999.90;;;12.70;99.90;;;;;;5113403;28;20031;-66
2023/10/04 04:49:43;;;;;;;1999.90;999.90;;;12.70;99.90;;;;;;5107009;28;20044;-66
2023/10/04 04:52:09;;;;;;;1999.90;999.90;;;12.70;99.90;;;;;;5110171;28;20345;-67
2023/10/04 04:54:35;;;;;;;1999.90;999.90;;;12.70;99.90;;;;;;5115049;28;20068;-75
2023/10/04 04:57:01;;;;;;;1999.90;999.90;;;12.70;99.90;;;;;;5114828;28;20102;-67
2023/10/04 04:59:26;;;;;;;1999.90;999.90;;;12.70;99.90;;;;;;5104935;28;20124;-66
2023/10/04 05:01:55;;;;;;;1999.90;999.90;;;12.70;99.90;;;;;;5112476;28;20031;-66
2023/10/04 05:04:22;;;;;;;1999.90;999.90;;;12.70;99.90;;;;;;5097411;28;20490;-66
2023/10/04 05:06:49;;;;;;;1999.90;999.90;;;12.80;99.90;;;;;;5094822;28;20039;-74
2023/10/04 05:09:17;;;;;;;1999.90;999.90;;;12.70;99.90;;;;;;5083046;28;20322;-66
2023/10/04 05:11:44;;;;;;;1999.90;999.90;;;12.70;99.90;;;;;;5100384;28;20304;-67
2023/10/04 05:14:10;;;;;;;1999.90;999.90;;;12.70;99.90;;;;;;5097341;28;20098;-67
2023/10/04 05:16:36;;;;;;;1999.90;999.90;;;12.70;99.90;;;;;;5098036;28;20157;-67
2023/10/04 05:19:04;;;;;;;1999.90;999.90;;;12.70;99.90;;;;;;5096024;28;20276;-74
2023/10/04 05:21:30;;;;;;;1999.90;999.90;;;12.70;99.90;;;;;;5101101;28;20280;-67
2023/10/04 05:23:56;;;;;;;1999.90;999.90;;;12.70;99.90;;;;;;5102841;28;20032;-66
2023/10/04 05:26:22;;;;;;;1999.90;999.90;;;12.60;99.90;;;;;;5096407;28;20460;-66
2023/10/04 05:28:48;;;;;;;1999.90;999.90;;;12.70;99.90;;;;;;5108553;28;20024;-67
2023/10/04 05:31:13;;;;;;;1999.90;999.90;;;12.70;99.90;;;;;;5104310;28;20032;-67
2023/10/04 05:33:39;;;;;;;1999.90;999.90;;;12.60;99.90;;;;;;5113243;28;20027;-67
2023/10/04 05:36:06;;;;;;;1999.90;999.90;;;12.60;99.90;;;;;;5096680;28;20028;-66
2023/10/04 05:38:33;;;;;;;;;;;12.60;99.90;;;;;;5114285;28;20524;-66
2023/10/04 05:41:00;;;;;;;1999.90;999.90;;;12.60;99.90;;;;;;5112828;28;20295;-66
2023/10/04 05:43:25;;;;;;;1999.90;999.90;;;12.50;99.90;;;;;;5096559;28;20080;-66
2023/10/04 05:45:51;;;;;;;1999.90;999.90;;;12.50;99.90;;;;;;5115167;28;20020;-67
2023/10/04 05:48:20;;;;;;;1999.90;999.90;;;12.50;99.90;;;;;;5123311;28;20304;-67
2023/10/04 05:50:48;;;;;;;1999.90;999.90;;;12.50;99.90;;;;;;5107437;28;20115;-67
2023/10/04 05:53:19;;;;;;;1999.90;999.90;;;12.50;99.90;;;;;;5085446;28;20422;-75
2023/10/04 05:55:45;;;;;;;1999.90;999.90;;;12.50;99.90;;;;;;5107610;28;20357;-67
2023/10/04 05:58:11;;;;;;;1999.90;999.90;;;12.50;99.90;;;;;;5094783;28;20028;-67
2023/10/04 06:00:46;;;;;;;1999.90;999.90;;;12.50;99.90;;;;;;5102963;28;20308;-67
2023/10/04 06:03:12;;;;;;;1999.90;999.90;;;12.50;99.90;;;;;;5108146;28;20115;-67
2023/10/04 06:05:40;;;;;;;1999.90;999.90;;;12.60;99.90;;;;;;5103423;28;20020;-67
2023/10/04 06:08:11;;;;;;;1999.90;999.90;;;12.60;99.90;;;;;;5103569;28;20525;-67
2023/10/04 06:10:36;;;;;;;1999.90;999.90;;;12.60;99.90;;;;;;5099040;28;20032;-67
2023/10/04 06:13:02;;;;;;;1999.90;999.90;;;12.60;99.90;;;;;;5102963;28;20377;-67
2023/10/04 06:15:30;;;;;;;1999.90;999.90;;;12.60;99.90;;;;;;5111779;28;20024;-67
2023/10/04 06:17:57;;;;;;;1999.90;999.90;;;12.70;99.90;;;;;;5109944;28;20039;-67
2023/10/04 06:20:24;;;;;;;1999.90;999.90;;;12.60;99.90;;;;;;5109172;28;20408;-67
2023/10/04 06:22:54;;;;;;;1999.90;999.90;;;12.70;99.90;;;;;;5090695;28;20100;-69
2023/10/04 06:25:23;;;;;;;1999.90;999.90;;;12.70;99.90;;;;;;5109899;27;20074;-68
2023/10/04 06:27:51;;;;;;;1999.90;999.90;;;12.80;99.90;;;;;;5110348;28;20032;-67
2023/10/04 06:30:23;;;;;;;1999.90;999.90;;;12.90;99.90;;;;;;5089170;28;20020;-67
2023/10/04 06:32:53;;;;;;;1999.90;999.90;;;12.90;99.90;;;;;;5113106;28;20023;-75
2023/10/04 06:35:25;;;;;;;1999.90;999.90;;;13.00;99.90;;;;;;5111018;28;20036;-67
2023/10/04 06:37:52;;;;;;;1999.90;999.90;;;13.00;99.90;;;;;;5114608;28;20381;-67
2023/10/04 06:40:21;;;;;;;1999.90;999.90;;;13.00;99.90;;;;;;5112570;28;20022;-67
2023/10/04 06:42:49;;;;;;;1999.90;999.90;;;13.00;99.90;;;;;;5079476;28;20036;-67
2023/10/04 06:45:26;;;;;;;1999.90;999.90;;;13.00;99.90;;;;;;5103348;28;20028;-67
2023/10/04 06:47:54;;;;;;;1999.90;999.90;;;13.00;99.90;;;;;;5097621;28;20036;-67
2023/10/04 06:50:22;;;;;;;1999.90;999.90;;;13.00;99.90;;;;;;5104242;28;20078;-67
2023/10/04 06:52:49;;;;;;;1999.90;999.90;;;13.10;99.90;;;;;;5108134;27;20023;-67
2023/10/04 06:55:16;;;;;;;1999.90;999.90;;;13.20;99.90;;;;;;5108080;27;20141;-67
2023/10/04 06:57:43;;;;;;;1999.90;999.90;;;13.30;99.90;;;;;;5103706;27;20062;-67
2023/10/04 07:00:20;;;;;;;1999.90;999.90;;;13.50;99.90;;;;;;5089912;28;20015;-67
2023/10/04 07:02:53;;;;;;;1999.90;999.90;;;13.70;99.90;;;;;;5110020;27;20059;-67
2023/10/04 07:05:20;;;;;;;1999.90;999.90;;;13.90;99.90;;;;;;5114061;27;20205;-67
2023/10/04 07:07:54;;;;;;;1999.90;999.90;;;14.20;99.90;;;;;;5108008;27;20024;-67
2023/10/04 07:10:21;;;;;;;1999.90;999.90;;;14.50;99.90;;;;;;5112686;27;20027;-67
2023/10/04 07:12:51;;;;;;;1999.90;999.90;;;14.60;99.90;;;;;;5121628;27;20099;-67
2023/10/04 07:15:18;;;;;;;1999.90;999.90;;;14.70;99.90;;;;;;5112693;27;20182;-67
2023/10/04 07:17:44;;;;;;;1999.90;999.90;;;14.80;99.90;;;;;;5105313;27;20024;-67
2023/10/04 07:20:15;;;;;;;1999.90;999.90;;;14.90;99.90;;;;;;5121384;27;20038;-66
2023/10/04 07:22:45;;;;;;;1999.90;999.90;;;14.90;99.90;;;;;;5110051;27;20419;-67
2023/10/04 07:25:15;;;;;;;1999.90;999.90;;;14.90;99.90;;;;;;5094968;28;20043;-67
2023/10/04 07:27:45;;;;;;;1999.90;999.90;;;14.90;99.90;;;;;;5101488;27;20035;-66
2023/10/04 07:30:12;;;;;;;1999.90;999.90;;;14.90;99.90;;;;;;5111670;27;20041;-66
2023/10/04 07:32:43;;;;;;;1999.90;999.90;;;15.00;99.90;;;;;;5117385;27;20034;-67
2023/10/04 07:35:12;;;;;;;1999.90;999.90;;;15.00;99.90;;;;;;5127251;27;20016;-67
2023/10/04 07:37:39;;;;;;;1999.90;999.90;;;15.10;99.90;;;;;;5103964;27;20012;-66
2023/10/04 07:40:09;;;;;;;1999.90;999.90;;;15.20;99.90;;;;;;5116951;27;20106;-67
2023/10/04 07:42:38;;;;;;;1999.90;999.90;;;15.30;99.90;;;;;;5104957;27;20716;-66
2023/10/04 07:45:05;;;;;;;1999.90;999.90;;;15.40;99.90;;;;;;5097962;28;20043;-66
2023/10/04 07:47:36;;;;;;;1999.90;999.90;;;15.50;99.90;;;;;;5121123;27;20441;-66
2023/10/04 07:50:05;;;;;;;1999.90;999.90;;;15.60;99.90;;;;;;5119129;27;20051;-67
2023/10/04 07:52:31;;;;;;;1999.90;999.90;;;15.60;99.90;;;;;;5102579;27;20063;-67
2023/10/04 07:54:59;;;;;;;1999.90;999.90;;;15.70;99.90;;;;;;5105981;27;20035;-75
2023/10/04 07:57:28;;;;;;;1999.90;999.90;;;15.80;99.90;;;;;;5109766;28;20453;-67
2023/10/04 07:59:54;;;;;;;1999.90;999.90;;;15.90;99.90;;;;;;5118283;27;20348;-66
2023/10/04 08:02:20;;;;;;;1999.90;999.90;;;16.00;99.90;;;;;;5097698;27;20028;-68
2023/10/04 08:04:48;;;;;;;1999.90;999.90;;;16.00;99.90;;;;;;5107025;28;20034;-67
2023/10/04 08:07:15;;;;;;;1999.90;999.90;;;16.00;99.90;;;;;;5103516;28;20415;-67
2023/10/04 08:09:41;;;;;;;1999.90;999.90;;;16.10;99.90;;;;;;5111357;27;20034;-67
2023/10/04 08:12:09;;;;;;;1999.90;999.90;;;16.10;99.90;;;;;;5106813;27;20430;-67
2023/10/04 08:14:35;;;;;;;1999.90;999.90;;;16.10;99.90;;;;;;5108980;27;20077;-67
2023/10/04 08:17:01;;;;;;;1999.90;999.90;;;16.20;99.90;;;;;;5111626;27;20024;-67
2023/10/04 08:19:27;;;;;;;1999.90;999.90;;;16.30;99.90;;;;;;5109252;27;20369;-76
2023/10/04 08:21:53;;;;;;;1999.90;999.90;;;16.30;99.90;;;;;;5114417;27;20111;-66
2023/10/04 08:24:20;;;;;;;1999.90;999.90;;;16.20;99.90;;;;;;5113250;27;20110;-66
2023/10/04 08:26:48;;;;;;;1999.90;999.90;;;16.10;99.90;;;;;;5102103;27;20078;-67
2023/10/04 08:29:14;;;;;;;1999.90;999.90;;;16.00;99.90;;;;;;5110410;28;20051;-67
2023/10/04 08:31:40;;;;;;;1999.90;999.90;;;15.90;99.90;;;;;;5098148;28;20052;-66
2023/10/04 08:34:06;;;;;;;1999.90;999.90;;;15.80;99.90;;;;;;5092327;28;20032;-67
2023/10/04 08:36:33;;;;;;;1999.90;999.90;;;15.70;99.90;;;;;;5084192;28;20411;-67
2023/10/04 08:39:00;;;;;;;1999.90;999.90;;;15.60;99.90;;;;;;5107891;28;24477;-66
2023/10/04 08:41:27;;;;;;;1999.90;999.90;;;15.70;99.90;;;;;;5105711;28;20032;-66
2023/10/04 08:43:53;;;;;;;1999.90;999.90;;;15.90;99.90;;;;;;5108012;28;20054;-74
2023/10/04 08:46:20;;;;;;;1999.90;999.90;;;16.20;99.90;;;;;;5102867;28;20372;-67
2023/10/04 08:48:53;;;;;;;1999.90;999.90;;;16.40;99.90;;;;;;5108022;28;20051;-66
2023/10/04 08:51:31;;;;;;;1999.90;999.90;;;16.60;99.90;;;;;;5104657;27;20078;-66
2023/10/04 08:54:10;;;;;;;1999.90;999.90;;;16.70;99.90;;;;;;5107786;28;20027;-67
2023/10/04 08:56:47;;;;;;;1999.90;999.90;;;16.90;99.90;;;;;;5110347;27;20406;-66
2023/10/04 08:59:14;;;;;;;1999.90;999.90;;;17.00;99.90;;;;;;5109714;27;20027;-66
2023/10/04 09:01:41;;;;;;;1999.90;999.90;;;17.10;99.90;;;;;;5111433;27;20080;-66
2023/10/04 09:04:07;;;;;;;1999.90;999.90;;;17.10;99.90;;;;;;5108713;27;20031;-66
2023/10/04 09:06:33;;;;;;;1999.90;999.90;;;17.20;99.90;;;;;;5110125;28;20103;-67
2023/10/04 09:08:58;;;;;;;1999.90;999.90;;;17.10;99.90;;;;;;5108850;28;20391;-67
2023/10/04 09:11:25;;;;;;;1999.90;999.90;;;17.10;99.90;;;;;;5108034;28;20020;-67
2023/10/04 09:13:52;;;;;;;1999.90;999.90;;;17.00;99.90;;;;;;5107406;28;20039;-67
2023/10/04 09:16:29;;;;;;;1999.90;999.90;;;16.90;99.90;;;;;;5111657;28;20032;-67
2023/10/04 09:19:03;;;;;;;1999.90;999.90;;;17.00;99.90;;;;;;5113025;28;20024;-67
2023/10/04 09:21:30;;;;;;;1999.90;999.90;;;17.00;99.90;;;;;;5097460;28;20026;-67
2023/10/04 09:24:07;;;;;;;;;;;17.00;99.90;;;;;;5103669;28;20418;-67
2023/10/04 09:26:33;;;;;;;1999.90;999.90;;;17.00;99.90;;;;;;5111922;28;20280;-75
2023/10/04 09:28:59;;;;;;;1999.90;999.90;;;16.90;99.90;;;;;;5123893;28;20055;-67
2023/10/04 09:31:26;;;;;;;1999.90;999.90;;;16.90;99.90;;;;;;5124572;28;20414;-67
2023/10/04 09:33:51;;;;;;;1999.90;999.90;;;16.90;99.90;;;;;;5105760;28;20032;-67
2023/10/04 09:36:33;;;;;;;1999.90;999.90;;;16.80;99.90;;;;;;5078557;28;20027;-67
2023/10/04 09:39:10;;;;;;;1999.90;999.90;;;16.80;99.90;;;;;;5109464;28;20027;-67
2023/10/04 09:41:41;;;;;;;1999.90;999.90;;;16.80;99.90;;;;;;5101136;28;20024;-67
2023/10/04 09:44:23;;;;;;;1999.90;999.90;;;16.80;99.90;;;;;;5096693;28;20120;-67
2023/10/04 09:46:54;;;;;;;1999.90;999.90;;;16.90;99.90;;;;;;5099260;28;20307;-75
2023/10/04 09:49:21;;;;;;;1999.90;999.90;;;16.80;99.90;;;;;;5108192;28;20335;-67
2023/10/04 09:51:48;;;;;;;1999.90;999.90;;;16.70;99.90;;;;;;5080376;28;20042;-67
2023/10/04 09:54:17;;;;;;;1999.90;999.90;;;16.60;99.90;;;;;;5106536;28;20035;-67
2023/10/04 09:56:44;;;;;;;1999.90;999.90;;;16.60;99.90;;;;;;5111145;28;20509;-67
2023/10/04 09:59:20;;;;;;;1999.90;999.90;;;16.50;99.90;;;;;;5104062;28;20365;-67
2023/10/04 10:01:56;;;;;;;1999.90;999.90;;;16.50;99.90;;;;;;5109191;28;20092;-75
2023/10/04 10:04:29;;;;;;;1999.90;999.90;;;16.50;99.90;;;;;;5102450;28;20190;-67
2023/10/04 10:07:10;;;;;;;1999.90;999.90;;;16.40;99.90;;;;;;5111432;28;20438;-67
2023/10/04 10:09:43;;;;;;;1999.90;999.90;;;16.40;99.90;;;;;;5108077;28;20054;-67
2023/10/04 10:12:10;;;;;;;1999.90;999.90;;;16.50;99.90;;;;;;5097738;28;20032;-67
2023/10/04 10:14:37;;;;;;;1999.90;999.90;;;16.60;99.90;;;;;;5100564;28;20015;-76
2023/10/04 10:17:04;;;;;;;1999.90;999.90;;;16.70;99.90;;;;;;5103940;28;20028;-67
2023/10/04 10:19:31;;;;;;;1999.90;999.90;;;16.60;99.90;;;;;;5107166;28;20032;-67
2023/10/04 10:22:16;;;;;;;1999.90;999.90;;;16.50;99.90;;;;;;5102979;28;20028;-67
2023/10/04 10:25:14;;;;;;;1999.90;999.90;;;16.50;99.90;;;;;;5103922;28;20052;-67
2023/10/04 10:27:41;;;;;;;1999.90;999.90;;;16.50;99.90;;;;;;5109783;28;20028;-67
2023/10/04 10:30:13;;;;;;;1999.90;999.90;;;16.50;99.90;;;;;;5112040;28;20020;-67
2023/10/04 10:32:54;;;;;;;1999.90;999.90;;;16.40;99.90;;;;;;5110893;28;20415;-67
2023/10/04 10:35:57;;;;;;;1999.90;999.90;;;16.40;99.90;;;;;;5109754;28;20024;-67
2023/10/04 10:38:41;;;;;;;1999.90;999.90;;;16.50;99.90;;;;;;5082084;28;20319;-67
2023/10/04 10:41:25;;;;;;;1999.90;999.90;;;16.50;99.90;;;;;;5099971;28;20024;-67
2023/10/04 10:44:30;;;;;;;1999.90;999.90;;;16.60;99.90;;;;;;5103800;28;20024;-67
2023/10/04 10:46:57;;;;;;;1999.90;999.90;;;16.70;99.90;;;;;;5107708;28;20016;-67
2023/10/04 10:49:44;;;;;;;1999.90;999.90;;;16.80;99.90;;;;;;5103230;28;20032;-67
2023/10/04 10:52:23;;;;;;;1999.90;999.90;;;17.00;99.90;;;;;;5096601;28;20036;-68
2023/10/04 10:54:50;;;;;;;1999.90;999.90;;;17.10;99.90;;;;;;5112251;28;20051;-67
2023/10/04 10:57:18;;;;;;;1999.90;999.90;;;17.30;99.90;;;;;;5101070;28;20032;-68
2023/10/04 10:59:46;;;;;;;1999.90;999.90;;;17.40;99.90;;;;;;5105544;28;20019;-67
2023/10/04 11:02:12;;;;;;;1999.90;999.90;;;17.50;99.90;;;;;;5103683;28;20083;-67
2023/10/04 11:04:38;;;;;;;1999.90;999.90;;;17.50;99.90;;;;;;5107977;28;20059;-67
2023/10/04 11:07:06;;;;;;;1999.90;999.90;;;17.60;99.90;;;;;;5102329;28;20419;-67
2023/10/04 11:09:38;;;;;;;1999.90;999.90;;;17.60;99.90;;;;;;5107962;28;20400;-66
2023/10/04 11:12:07;;;;;;;1999.90;999.90;;;17.80;99.90;;;;;;5101774;28;20047;-65
2023/10/04 11:14:34;;;;;;;1999.90;999.90;;;17.90;99.90;;;;;;5105910;28;20020;-65
2023/10/04 11:17:04;;;;;;;;;;;18.00;99.90;;;;;;5094833;28;20029;-66
2023/10/04 11:19:31;;;;;;;1999.90;999.90;;;18.10;99.90;;;;;;5116091;27;19915;-66
2023/10/04 11:21:59;;;;;;;1999.90;999.90;;;18.20;99.90;;;;;;5109000;27;20431;-75
2023/10/04 11:24:25;;;;;;;1999.90;999.90;;;18.20;99.90;;;;;;5103814;27;20028;-66
2023/10/04 11:26:56;;;;;;;1999.90;999.90;;;18.20;99.90;;;;;;5107547;27;20039;-66
2023/10/04 11:29:29;;;;;;;1999.90;999.90;;;18.20;99.90;;;;;;5109277;27;20031;-66
2023/10/04 11:32:01;;;;;;;1999.90;999.90;;;18.20;99.90;;;;;;5117656;27;20085;-66
2023/10/04 11:34:27;;;;;;;1999.90;999.90;;;18.20;99.90;;;;;;5101331;28;20024;-66
2023/10/04 11:36:59;;;;;;;1999.90;999.90;;;18.20;99.90;;;;;;5102917;27;20023;-67
2023/10/04 11:39:33;;;;;;;1999.90;999.90;;;18.20;99.90;;;;;;5114045;27;20410;-65
2023/10/04 11:42:00;;;;;;;1999.90;999.90;;;18.20;99.90;;;;;;5119947;27;20111;-66
2023/10/04 11:44:25;;;;;;;;;;;18.10;99.90;;;;;;5086729;28;20066;-66
2023/10/04 11:46:56;;;;;;;1999.90;999.90;;;18.10;99.90;;;;;;5117026;27;19943;-66
2023/10/04 11:49:22;;;;;;;1999.90;999.90;;;18.10;99.90;;;;;;5115867;27;20040;-66
2023/10/04 11:51:53;;;;;;;1999.90;999.90;;;18.00;99.90;;;;;;5120019;27;20421;-75
2023/10/04 11:54:19;;;;;;;1999.90;999.90;;;17.90;99.90;;;;;;5109585;27;20013;-66
2023/10/04 11:56:45;;;;;;;1999.90;999.90;;;17.80;99.90;;;;;;5107061;27;20305;-66
2023/10/04 11:59:13;;;;;;;1999.90;999.90;;;17.70;99.90;;;;;;5099443;28;20346;-75
2023/10/04 12:01:46;;;;;;;1999.90;999.90;;;17.70;99.90;;;;;;5101253;27;20035;-66
2023/10/04 12:04:14;;;;;;;1999.90;999.90;;;17.70;99.90;;;;;;5114423;27;20031;-66
2023/10/04 12:06:41;;;;;;;1999.90;999.90;;;17.70;99.90;;;;;;5114259;27;20024;-68
2023/10/04 12:09:08;;;;;;;1999.90;999.90;;;17.70;99.90;;;;;;5101198;27;20019;-66